Time;durP1;ratioP1;P1;durP2;ratioP2;P2;SDS_P1;SDS_P2;PMS_P1;PMS_P2;Temp;Humidity;BMP_temperature;BMP_pressure;BME280_temperature;BME280_humidity;BME280_pressure;Samples;Min_cycle;Max_cycle;Signal;HPM_P1;HPM_P2
2021/05/25 00:01:41;;;;;;;1.08;0.63;;;16.10;84.00;;;;;;5014608;28;20058;-85
2021/05/25 00:04:07;;;;;;;2.22;0.70;;;16.10;84.20;;;;;;5014252;28;20034;-85
2021/05/25 00:06:32;;;;;;;1.13;0.73;;;16.10;84.30;;;;;;5010859;28;20042;-85
2021/05/25 00:08:58;;;;;;;1.25;0.60;;;16.10;84.20;;;;;;5013651;28;20715;-86
2021/05/25 00:11:23;;;;;;;1.25;0.50;;;16.10;83.80;;;;;;5004284;28;20310;-86
2021/05/25 00:13:49;;;;;;;1.20;0.50;;;16.10;83.60;;;;;;5018194;28;20116;-85
2021/05/25 00:16:14;;;;;;;1.02;0.50;;;16.10;83.30;;;;;;5027918;28;20274;-86
2021/05/25 00:18:40;;;;;;;2.63;0.70;;;16.10;83.50;;;;;;5009649;28;20441;-86
2021/05/25 00:21:06;;;;;;;1.20;0.60;;;16.10;83.70;;;;;;5014617;28;20051;-87
2021/05/25 00:23:31;;;;;;;0.82;0.50;;;16.20;83.70;;;;;;5007170;28;20034;-87
2021/05/25 00:25:57;;;;;;;1.60;0.55;;;16.10;83.00;;;;;;5019646;28;20044;-87
2021/05/25 00:28:23;;;;;;;1.00;0.65;;;16.10;83.30;;;;;;5012464;28;21825;-87
2021/05/25 00:30:49;;;;;;;1.60;1.10;;;16.10;83.30;;;;;;5007034;28;20656;-86
2021/05/25 00:33:15;;;;;;;1.52;0.70;;;16.10;83.60;;;;;;5016166;28;20042;-86
2021/05/25 00:35:41;;;;;;;2.03;0.77;;;16.10;83.60;;;;;;5005739;28;20048;-85
2021/05/25 00:38:07;;;;;;;1.13;0.52;;;16.10;83.20;;;;;;5027350;28;20051;-87
2021/05/25 00:40:33;;;;;;;2.40;1.00;;;16.10;83.30;;;;;;5008914;28;20125;-86
2021/05/25 00:42:59;;;;;;;1.48;0.77;;;16.10;83.80;;;;;;5011280;28;20038;-87
2021/05/25 00:45:25;;;;;;;4.63;0.70;;;16.10;84.10;;;;;;5026711;28;20033;-84
2021/05/25 00:47:50;;;;;;;1.38;0.57;;;16.10;84.50;;;;;;5006654;28;20064;-85
2021/05/25 00:50:19;;;;;;;1.10;0.73;;;16.10;85.00;;;;;;5022261;28;20068;-85
2021/05/25 00:52:46;;;;;;;2.38;0.88;;;16.00;85.60;;;;;;5008957;28;20289;-84
2021/05/25 00:55:18;;;;;;;1.30;0.70;;;16.00;86.30;;;;;;5008123;28;20056;-86
2021/05/25 00:57:45;;;;;;;1.60;0.70;;;15.90;86.50;;;;;;5007426;28;20414;-86
2021/05/25 01:00:13;;;;;;;1.15;0.63;;;15.90;86.80;;;;;;5005726;28;20373;-86
2021/05/25 01:02:40;;;;;;;1.45;0.73;;;15.90;86.90;;;;;;5008000;28;20042;-86
2021/05/25 01:05:08;;;;;;;1.25;0.50;;;15.90;87.20;;;;;;5024239;28;20129;-85
2021/05/25 01:07:34;;;;;;;1.25;0.60;;;15.80;87.40;;;;;;5026381;28;20042;-86
2021/05/25 01:10:00;;;;;;;4.50;0.95;;;15.80;87.30;;;;;;5007048;28;20129;-86
2021/05/25 01:12:30;;;;;;;4.43;0.77;;;15.80;87.40;;;;;;5020629;28;20061;-86
2021/05/25 01:14:59;;;;;;;1.95;0.68;;;15.80;87.80;;;;;;5012250;28;20368;-86
2021/05/25 01:17:25;;;;;;;1.70;0.80;;;15.80;87.80;;;;;;5009759;28;20037;-87
2021/05/25 01:19:51;;;;;;;1.83;0.73;;;15.70;87.90;;;;;;5011449;28;20468;-87
2021/05/25 01:22:16;;;;;;;1.52;0.80;;;15.70;87.60;;;;;;5006464;28;20130;-86
2021/05/25 01:24:42;;;;;;;1.60;0.98;;;15.60;88.00;;;;;;5020923;28;20045;-87
2021/05/25 01:27:07;;;;;;;1.50;0.57;;;15.60;89.00;;;;;;5013750;28;20034;-87
2021/05/25 01:29:35;;;;;;;2.47;0.70;;;15.60;88.80;;;;;;5009008;28;20042;-85
2021/05/25 01:32:02;;;;;;;1.77;0.80;;;15.60;88.90;;;;;;5015318;28;20037;-87
2021/05/25 01:34:27;;;;;;;2.67;0.80;;;15.60;89.90;;;;;;5002459;28;20044;-87
2021/05/25 01:36:53;;;;;;;4.90;0.90;;;15.60;90.50;;;;;;5013191;28;20042;-86
2021/05/25 01:39:18;;;;;;;2.60;0.73;;;15.60;91.00;;;;;;4999491;28;20046;-87
2021/05/25 01:41:44;;;;;;;3.88;0.90;;;15.50;91.10;;;;;;5008111;28;20102;-87
2021/05/25 01:44:10;;;;;;;2.92;0.73;;;15.50;91.00;;;;;;5023029;28;20033;-87
2021/05/25 01:46:36;;;;;;;2.40;0.80;;;15.50;91.00;;;;;;5013283;28;20058;-87
2021/05/25 01:49:02;;;;;;;1.20;0.90;;;15.40;91.00;;;;;;5004925;28;20081;-87
2021/05/25 01:51:27;;;;;;;1.20;0.68;;;15.40;91.20;;;;;;5008395;28;20064;-87
2021/05/25 01:53:54;;;;;;;2.90;0.82;;;15.40;91.30;;;;;;5010396;28;20194;-87
2021/05/25 01:56:19;;;;;;;1.10;0.73;;;15.40;91.50;;;;;;5013011;28;20053;-87
2021/05/25 01:58:45;;;;;;;1.67;0.73;;;15.30;91.40;;;;;;5012138;28;20038;-88
2021/05/25 02:01:12;;;;;;;1.83;0.90;;;15.30;91.40;;;;;;5015343;28;20488;-86
2021/05/25 02:03:40;;;;;;;1.88;0.50;;;15.30;91.40;;;;;;5014585;28;20589;-87
2021/05/25 02:06:07;;;;;;;1.35;0.70;;;15.20;91.20;;;;;;5013384;28;20046;-87
2021/05/25 02:08:33;;;;;;;2.90;0.63;;;15.20;90.90;;;;;;5013793;28;20057;-87
2021/05/25 02:11:01;;;;;;;1.88;0.65;;;15.20;91.00;;;;;;5016277;28;20093;-87
2021/05/25 02:13:34;;;;;;;0.85;0.68;;;15.20;90.80;;;;;;5013748;28;20042;-87
2021/05/25 02:16:02;;;;;;;2.17;0.98;;;15.10;90.60;;;;;;5012301;28;20042;-87
2021/05/25 02:18:30;;;;;;;2.22;0.68;;;15.10;90.60;;;;;;5006377;28;20136;-87
2021/05/25 02:21:00;;;;;;;3.28;0.70;;;15.00;90.80;;;;;;5008059;28;20153;-87
2021/05/25 02:23:27;;;;;;;2.38;1.00;;;15.00;90.80;;;;;;5006379;28;20062;-87
2021/05/25 02:25:53;;;;;;;2.13;0.80;;;14.90;90.60;;;;;;5005939;28;20034;-89
2021/05/25 02:28:19;;;;;;;0.70;0.63;;;14.90;90.80;;;;;;5019107;28;20042;-86
2021/05/25 02:30:45;;;;;;;1.52;0.93;;;14.90;90.90;;;;;;5011139;28;20124;-87
2021/05/25 02:33:13;;;;;;;3.05;0.75;;;14.80;90.70;;;;;;5013730;28;20426;-87
2021/05/25 02:35:40;;;;;;;2.92;1.10;;;14.70;90.60;;;;;;5005472;28;20050;-87
2021/05/25 02:38:07;;;;;;;1.60;0.52;;;14.70;90.80;;;;;;5010580;28;20714;-88
2021/05/25 02:40:34;;;;;;;2.08;0.90;;;14.60;91.00;;;;;;5014696;28;20038;-89
2021/05/25 02:43:01;;;;;;;0.90;0.70;;;14.50;91.10;;;;;;5011384;28;20044;-88
2021/05/25 02:45:26;;;;;;;1.25;0.80;;;14.50;90.70;;;;;;5014842;28;20038;-89
2021/05/25 02:47:52;;;;;;;3.33;0.60;;;14.50;90.80;;;;;;5015384;28;20038;-88
2021/05/25 02:50:19;;;;;;;0.98;0.70;;;14.50;91.10;;;;;;5011167;28;20064;-88
2021/05/25 02:52:47;;;;;;;1.25;0.60;;;14.40;90.70;;;;;;5004662;28;20448;-87
2021/05/25 02:55:22;;;;;;;1.67;0.70;;;14.40;90.90;;;;;;5012434;28;20038;-87
2021/05/25 02:57:47;;;;;;;1.75;1.25;;;14.40;90.90;;;;;;5007188;28;20045;-88
2021/05/25 03:00:19;;;;;;;1.38;0.65;;;14.40;90.90;;;;;;5016545;28;20057;-88
2021/05/25 03:02:45;;;;;;;0.67;0.50;;;14.30;90.90;;;;;;5022170;28;20069;-87
2021/05/25 03:05:13;;;;;;;1.92;0.70;;;14.30;90.90;;;;;;5006781;28;20367;-87
2021/05/25 03:07:39;;;;;;;0.88;0.60;;;14.30;90.70;;;;;;5004370;28;20038;-87
2021/05/25 03:10:08;;;;;;;1.15;0.60;;;14.30;90.60;;;;;;5004468;28;20045;-87
2021/05/25 03:12:33;;;;;;;2.42;0.82;;;14.30;90.70;;;;;;5013870;28;20037;-88
2021/05/25 03:15:00;;;;;;;1.52;0.73;;;14.20;90.50;;;;;;5014806;28;20057;-90
2021/05/25 03:17:26;;;;;;;1.88;1.15;;;14.20;90.60;;;;;;5015689;28;20121;-88
2021/05/25 03:19:52;;;;;;;1.23;0.60;;;14.20;90.50;;;;;;5007604;28;20132;-87
2021/05/25 03:22:18;;;;;;;1.05;0.60;;;14.10;90.60;;;;;;5013602;28;20483;-88
2021/05/25 03:24:44;;;;;;;2.63;0.85;;;14.10;90.20;;;;;;5012231;28;20121;-88
2021/05/25 03:27:09;;;;;;;1.02;0.52;;;14.10;90.40;;;;;;5006299;28;20090;-87
2021/05/25 03:29:35;;;;;;;1.13;0.60;;;14.10;90.30;;;;;;5007357;28;20068;-88
2021/05/25 03:32:01;;;;;;;0.80;0.73;;;14.00;90.00;;;;;;5015296;28;20132;-89
2021/05/25 03:34:27;;;;;;;2.65;0.60;;;14.00;90.10;;;;;;5017251;28;20050;-89
2021/05/25 03:36:52;;;;;;;0.77;0.55;;;13.90;90.20;;;;;;5020585;28;20045;-90
2021/05/25 03:39:18;;;;;;;2.05;0.57;;;13.90;89.40;;;;;;5030734;28;20329;-90
2021/05/25 03:45:16;;;;;;;1.00;0.85;;;13.90;86.90;;;;;;4999224;28;20048;-88
2021/05/25 03:48:35;;;;;;;0.40;0.30;;;13.90;87.60;;;;;;5013375;28;20068;-88
2021/05/25 03:51:30;;;;;;;1.25;0.40;;;13.90;83.70;;;;;;4974387;28;20482;-88
2021/05/25 03:54:31;;;;;;;1.35;0.40;;;13.90;81.60;;;;;;5004456;28;20337;-89
2021/05/25 03:57:05;;;;;;;0.50;0.30;;;13.80;80.60;;;;;;5030402;28;20076;-88
2021/05/25 03:59:31;;;;;;;0.68;0.40;;;13.70;81.20;;;;;;5034283;28;20034;-85
2021/05/25 04:02:06;;;;;;;0.80;0.50;;;13.70;80.80;;;;;;5014311;28;20038;-89
2021/05/25 04:04:34;;;;;;;0.30;0.30;;;13.70;81.10;;;;;;5008830;28;20367;-87
2021/05/25 04:07:00;;;;;;;0.50;0.40;;;13.70;81.00;;;;;;5001379;28;20048;-87
2021/05/25 04:09:28;;;;;;;1.55;0.50;;;13.80;81.60;;;;;;5004568;28;20057;-87
2021/05/25 04:12:32;;;;;;;0.82;0.40;;;13.80;82.30;;;;;;5012020;28;20041;-88
2021/05/25 04:15:18;;;;;;;0.80;0.57;;;13.70;81.50;;;;;;5014028;28;20041;-90
2021/05/25 04:18:13;;;;;;;3.45;0.50;;;13.70;82.90;;;;;;5001847;28;20061;-90
2021/05/25 04:20:44;;;;;;;0.88;0.50;;;13.70;83.30;;;;;;5000413;28;20042;-88
2021/05/25 04:23:25;;;;;;;0.68;0.50;;;13.70;84.90;;;;;;5021615;28;20034;-89
2021/05/25 04:26:18;;;;;;;1.90;0.50;;;13.70;83.90;;;;;;5002961;28;20049;-89
2021/05/25 04:28:44;;;;;;;1.38;0.68;;;13.70;82.60;;;;;;4996927;28;20079;-85
2021/05/25 04:31:56;;;;;;;1.38;0.50;;;13.70;82.70;;;;;;5010121;28;20043;-89
2021/05/25 04:34:43;;;;;;;0.50;0.50;;;13.60;82.00;;;;;;5001265;28;20038;-88
2021/05/25 04:37:10;;;;;;;1.25;0.57;;;13.60;82.00;;;;;;5000450;28;20269;-88
2021/05/25 04:39:50;;;;;;;1.00;0.50;;;13.60;80.50;;;;;;5001765;28;20084;-88
2021/05/25 04:42:22;;;;;;;1.35;0.40;;;13.60;80.80;;;;;;5012174;28;20357;-89
2021/05/25 04:44:47;;;;;;;2.70;0.60;;;13.70;81.30;;;;;;5007715;28;20062;-87
2021/05/25 04:47:15;;;;;;;0.80;0.30;;;13.60;80.40;;;;;;5012886;28;20496;-86
2021/05/25 04:49:46;;;;;;;1.20;0.57;;;13.70;80.10;;;;;;5019310;28;20042;-87
2021/05/25 04:52:12;;;;;;;1.23;0.40;;;13.70;80.00;;;;;;5011262;28;20034;-88
2021/05/25 04:54:38;;;;;;;0.98;0.40;;;13.70;78.80;;;;;;5010752;28;20038;-88
2021/05/25 04:57:04;;;;;;;1.38;0.32;;;13.80;79.40;;;;;;5019112;28;20053;-89
2021/05/25 04:59:36;;;;;;;1.90;0.55;;;13.70;79.40;;;;;;5011316;28;20090;-90
2021/05/25 05:02:17;;;;;;;1.23;0.40;;;13.70;79.30;;;;;;5023779;28;20046;-90
2021/05/25 05:04:48;;;;;;;0.40;0.30;;;13.70;78.40;;;;;;5016650;28;20049;-91
2021/05/25 05:07:41;;;;;;;0.85;0.47;;;13.60;78.00;;;;;;5015768;28;20437;-89
2021/05/25 05:10:07;;;;;;;3.22;0.50;;;13.60;77.50;;;;;;5014071;28;20030;-90
2021/05/25 05:12:34;;;;;;;0.55;0.45;;;13.60;77.90;;;;;;5026381;28;20046;-88
2021/05/25 05:15:18;;;;;;;2.28;0.88;;;13.50;77.80;;;;;;5008189;28;20096;-87
2021/05/25 05:17:46;;;;;;;0.47;0.40;;;13.50;78.00;;;;;;5012856;28;20068;-89
2021/05/25 05:20:15;;;;;;;1.75;0.50;;;13.50;77.60;;;;;;5004241;28;20073;-88
2021/05/25 05:22:41;;;;;;;1.13;0.40;;;13.40;77.60;;;;;;5016576;28;20042;-90
2021/05/25 05:25:21;;;;;;;3.53;0.30;;;13.40;77.10;;;;;;5015761;28;20377;-89
2021/05/25 05:28:03;;;;;;;0.70;0.40;;;13.40;77.00;;;;;;5017806;28;20038;-87
2021/05/25 05:30:29;;;;;;;0.88;0.40;;;13.50;75.30;;;;;;5016261;28;20044;-89
2021/05/25 05:33:15;;;;;;;0.55;0.40;;;13.50;76.10;;;;;;5014069;28;20034;-90
2021/05/25 05:35:42;;;;;;;1.10;0.40;;;13.50;75.90;;;;;;5004100;28;20038;-89
2021/05/25 05:38:07;;;;;;;1.00;0.47;;;13.40;76.00;;;;;;5015328;28;20106;-87
2021/05/25 05:40:37;;;;;;;1.52;0.50;;;13.40;75.40;;;;;;5030851;28;20286;-89
2021/05/25 05:43:02;;;;;;;1.00;0.40;;;13.20;75.20;;;;;;5016795;28;20041;-88
2021/05/25 05:45:28;;;;;;;2.97;0.57;;;13.20;74.00;;;;;;5010274;28;20046;-87
2021/05/25 05:47:54;;;;;;;1.10;0.47;;;13.10;74.50;;;;;;5018938;28;20056;-88
2021/05/25 05:50:20;;;;;;;0.93;0.45;;;13.10;73.90;;;;;;5009017;28;20045;-87
2021/05/25 05:52:45;;;;;;;3.45;0.43;;;13.10;74.40;;;;;;5004220;28;20432;-90
2021/05/25 05:55:12;;;;;;;2.17;0.40;;;13.10;74.30;;;;;;5008120;28;20054;-85
2021/05/25 05:57:40;;;;;;;4.68;0.50;;;13.10;73.20;;;;;;5001611;28;20045;-87
2021/05/25 06:00:08;;;;;;;0.80;0.50;;;13.10;73.20;;;;;;5014802;28;20046;-87
2021/05/25 06:02:34;;;;;;;0.60;0.43;;;13.10;73.50;;;;;;5018999;28;20041;-88
2021/05/25 06:05:00;;;;;;;1.38;0.60;;;13.10;73.80;;;;;;5022804;28;20042;-89
2021/05/25 06:07:25;;;;;;;0.40;0.40;;;13.10;72.30;;;;;;5025938;28;20117;-88
2021/05/25 06:09:54;;;;;;;1.35;0.47;;;13.20;73.50;;;;;;5003526;28;20042;-87
2021/05/25 06:12:19;;;;;;;0.50;0.32;;;13.20;73.90;;;;;;5023608;28;20045;-87
2021/05/25 06:14:45;;;;;;;0.40;0.32;;;13.30;72.50;;;;;;5017237;28;20098;-87
2021/05/25 06:17:11;;;;;;;1.05;0.50;;;13.20;71.90;;;;;;5007301;28;20042;-86
2021/05/25 06:19:36;;;;;;;0.40;0.40;;;13.20;72.70;;;;;;5028164;28;20050;-85
2021/05/25 06:22:02;;;;;;;0.40;0.40;;;13.20;73.00;;;;;;5015404;28;20044;-86
2021/05/25 06:24:27;;;;;;;0.52;0.50;;;13.20;72.70;;;;;;5010420;28;20397;-86
2021/05/25 06:26:53;;;;;;;1.55;0.60;;;13.30;72.80;;;;;;5014174;28;20054;-91
2021/05/25 06:29:18;;;;;;;2.55;0.60;;;13.20;72.90;;;;;;5003016;28;20117;-90
2021/05/25 06:31:44;;;;;;;6.32;0.43;;;13.20;72.80;;;;;;5011768;28;20188;-88
2021/05/25 06:34:10;;;;;;;2.72;0.50;;;13.20;72.70;;;;;;5015939;28;20054;-91
2021/05/25 06:36:37;;;;;;;1.50;0.43;;;13.30;72.50;;;;;;5010099;28;20073;-90
2021/05/25 06:39:04;;;;;;;0.35;0.32;;;13.30;72.30;;;;;;5032004;28;20302;-88
2021/05/25 06:41:30;;;;;;;2.67;0.55;;;13.30;72.90;;;;;;5013897;28;20518;-87
2021/05/25 06:43:55;;;;;;;1.98;0.88;;;13.50;71.70;;;;;;5001826;28;20069;-85
2021/05/25 06:46:21;;;;;;;0.68;0.30;;;13.60;71.80;;;;;;5000037;28;20045;-86
2021/05/25 06:48:47;;;;;;;0.70;0.50;;;13.60;71.20;;;;;;5001220;28;20076;-88
2021/05/25 06:51:13;;;;;;;0.88;0.40;;;13.70;70.60;;;;;;5014142;28;20056;-87
2021/05/25 06:53:39;;;;;;;1.88;0.50;;;13.80;70.60;;;;;;5009624;28;20122;-86
2021/05/25 06:56:05;;;;;;;0.60;0.50;;;13.90;70.00;;;;;;5034330;28;20048;-86
2021/05/25 06:58:32;;;;;;;2.63;0.43;;;13.90;69.70;;;;;;5029718;28;20053;-87
2021/05/25 07:00:57;;;;;;;1.75;0.50;;;13.90;68.40;;;;;;5007903;28;20051;-87
2021/05/25 07:03:23;;;;;;;2.40;0.52;;;13.90;69.90;;;;;;5008586;28;20030;-89
2021/05/25 07:05:48;;;;;;;1.77;0.47;;;14.00;69.50;;;;;;5004300;28;20101;-89
2021/05/25 07:08:14;;;;;;;0.65;0.30;;;14.10;69.80;;;;;;5006343;28;20034;-89
2021/05/25 07:10:39;;;;;;;1.52;0.50;;;14.20;67.50;;;;;;4999956;28;20050;-86
2021/05/25 07:13:11;;;;;;;0.70;0.50;;;14.20;67.20;;;;;;4960403;28;20148;-87
2021/05/25 07:15:36;;;;;;;1.55;0.55;;;14.30;67.90;;;;;;5007581;28;20382;-88
2021/05/25 07:18:02;;;;;;;1.55;0.38;;;14.40;66.80;;;;;;5006413;28;20092;-90
2021/05/25 07:20:28;;;;;;;1.88;0.40;;;14.60;66.40;;;;;;5016328;28;20129;-89
2021/05/25 07:22:54;;;;;;;0.80;0.40;;;14.80;66.90;;;;;;5013605;28;20033;-82
2021/05/25 07:25:24;;;;;;;6.80;0.65;;;14.90;65.10;;;;;;5010718;28;20696;-87
2021/05/25 07:27:49;;;;;;;2.63;0.45;;;15.10;64.90;;;;;;5014046;28;20365;-89
2021/05/25 07:30:15;;;;;;;0.63;0.30;;;15.10;65.60;;;;;;5032104;28;20037;-89
2021/05/25 07:32:42;;;;;;;0.80;0.50;;;15.30;64.20;;;;;;5012563;28;20115;-88
2021/05/25 07:35:08;;;;;;;3.95;0.43;;;15.40;64.20;;;;;;5015000;28;20034;-89
2021/05/25 07:37:34;;;;;;;4.60;0.60;;;15.40;63.80;;;;;;5014463;28;20174;-86
2021/05/25 07:39:59;;;;;;;0.55;0.40;;;15.40;64.00;;;;;;5016248;28;20544;-88
2021/05/25 07:42:26;;;;;;;1.35;0.47;;;15.40;64.00;;;;;;5008569;28;20045;-86
2021/05/25 07:44:52;;;;;;;1.15;0.38;;;15.30;63.10;;;;;;5020917;28;20065;-88
2021/05/25 07:47:17;;;;;;;0.50;0.40;;;15.30;65.00;;;;;;5020658;28;20050;-88
2021/05/25 07:49:43;;;;;;;1.70;0.30;;;15.30;65.30;;;;;;5015819;28;20705;-88
2021/05/25 07:52:10;;;;;;;0.35;0.30;;;15.30;65.90;;;;;;5007740;28;20089;-87
2021/05/25 07:54:36;;;;;;;0.70;0.30;;;15.30;64.10;;;;;;5020917;28;20049;-87
2021/05/25 07:57:01;;;;;;;1.33;0.55;;;15.20;65.70;;;;;;5008827;28;20041;-85
2021/05/25 07:59:27;;;;;;;5.57;0.40;;;15.10;64.40;;;;;;5005618;28;20053;-84
2021/05/25 08:01:53;;;;;;;0.38;0.30;;;15.20;63.30;;;;;;5007054;28;20053;-86
2021/05/25 08:04:19;;;;;;;0.77;0.50;;;15.20;64.60;;;;;;5005501;28;20034;-85
2021/05/25 08:06:45;;;;;;;1.67;0.45;;;15.40;64.10;;;;;;5003103;28;20260;-87
2021/05/25 08:09:11;;;;;;;0.40;0.35;;;15.40;63.60;;;;;;5026947;28;20077;-85
2021/05/25 08:11:37;;;;;;;2.28;0.40;;;15.40;63.30;;;;;;5017102;28;20129;-88
2021/05/25 08:14:08;;;;;;;0.45;0.30;;;15.40;66.20;;;;;;5007339;28;20042;-88
2021/05/25 08:16:35;;;;;;;3.35;0.70;;;15.50;65.10;;;;;;5022704;28;20034;-89
2021/05/25 08:21:32;;;;;;;1.95;0.50;;;15.60;63.50;;;;;;5021868;28;20049;-86
2021/05/25 08:23:57;;;;;;;0.30;0.20;;;15.60;64.50;;;;;;5014279;28;20035;-87
2021/05/25 08:26:26;;;;;;;0.90;0.40;;;15.60;62.50;;;;;;5006478;28;20132;-89
2021/05/25 08:28:54;;;;;;;0.75;0.50;;;15.80;62.70;;;;;;5017302;28;20038;-86
2021/05/25 08:31:21;;;;;;;6.13;0.50;;;15.90;64.20;;;;;;5013522;28;20410;-86
2021/05/25 08:33:46;;;;;;;2.47;0.30;;;16.00;63.70;;;;;;5010650;28;20468;-88
2021/05/25 08:36:14;;;;;;;1.33;0.30;;;16.00;62.90;;;;;;5026539;28;20046;-89
2021/05/25 08:38:40;;;;;;;1.00;0.30;;;15.90;63.70;;;;;;5004008;28;20042;-86
2021/05/25 08:41:06;;;;;;;0.57;0.30;;;15.90;62.80;;;;;;5006460;28;20053;-91
2021/05/25 08:43:35;;;;;;;0.60;0.40;;;15.70;62.30;;;;;;5003722;28;20034;-89
2021/05/25 08:46:00;;;;;;;0.70;0.32;;;15.60;62.40;;;;;;5016844;28;20069;-87
2021/05/25 08:48:26;;;;;;;1.88;0.55;;;15.50;63.20;;;;;;5024179;28;20046;-90
2021/05/25 08:50:57;;;;;;;1.73;0.50;;;15.40;63.40;;;;;;5010852;28;20076;-87
2021/05/25 08:53:23;;;;;;;1.25;0.50;;;15.30;63.40;;;;;;5004051;28;20516;-90
2021/05/25 08:55:51;;;;;;;2.75;0.40;;;15.20;63.80;;;;;;5016355;28;20050;-88
2021/05/25 08:58:18;;;;;;;1.45;0.50;;;15.20;64.60;;;;;;5012138;28;20046;-92
2021/05/25 09:00:44;;;;;;;1.88;0.30;;;15.20;63.50;;;;;;5019586;28;20050;-88
2021/05/25 09:03:13;;;;;;;1.58;0.93;;;15.30;63.60;;;;;;5018067;28;20052;-91
2021/05/25 09:05:47;;;;;;;0.73;0.52;;;15.40;63.60;;;;;;5010374;28;20041;-88
2021/05/25 09:08:13;;;;;;;0.75;0.43;;;15.60;63.20;;;;;;5021359;28;20042;-82
2021/05/25 09:10:45;;;;;;;1.10;0.43;;;15.60;62.60;;;;;;5039134;28;20046;-90
2021/05/25 09:13:16;;;;;;;4.45;0.30;;;15.50;61.80;;;;;;5010498;28;20030;-84
2021/05/25 09:15:45;;;;;;;3.15;0.68;;;15.30;63.10;;;;;;5016193;28;20080;-84
2021/05/25 09:18:21;;;;;;;0.50;0.50;;;15.30;64.20;;;;;;5009545;28;20049;-85
2021/05/25 09:20:55;;;;;;;1.83;0.40;;;15.30;65.30;;;;;;5012299;28;20104;-85
2021/05/25 09:23:36;;;;;;;0.47;0.32;;;15.40;62.80;;;;;;5019053;28;20303;-87
2021/05/25 09:26:10;;;;;;;0.55;0.35;;;15.60;64.00;;;;;;5010423;28;20386;-89
2021/05/25 09:29:02;;;;;;;0.55;0.40;;;15.90;65.70;;;;;;5017554;28;20053;-88
2021/05/25 09:31:44;;;;;;;0.57;0.30;;;16.20;61.60;;;;;;5001109;28;20038;-89
2021/05/25 09:34:20;;;;;;;0.53;0.30;;;16.40;59.80;;;;;;5013365;28;20417;-89
2021/05/25 09:37:04;;;;;;;2.00;0.50;;;16.60;59.80;;;;;;5016221;28;20756;-85
2021/05/25 09:39:48;;;;;;;1.20;0.43;;;16.50;60.80;;;;;;5007628;28;20038;-88
2021/05/25 09:42:17;;;;;;;0.45;0.30;;;16.40;60.40;;;;;;5011923;28;20120;-88
2021/05/25 09:45:04;;;;;;;0.20;0.20;;;16.60;58.70;;;;;;5010613;28;20037;-88
2021/05/25 09:47:41;;;;;;;0.40;0.30;;;16.70;58.60;;;;;;5019454;28;20088;-88
2021/05/25 09:50:11;;;;;;;0.77;0.30;;;16.80;61.70;;;;;;5012512;28;20045;-86
2021/05/25 09:53:00;;;;;;;0.95;0.43;;;17.00;59.00;;;;;;5018994;28;20037;-84
2021/05/25 09:55:26;;;;;;;0.35;0.25;;;17.20;57.60;;;;;;5006515;28;20046;-85
2021/05/25 09:57:54;;;;;;;0.60;0.30;;;17.20;58.30;;;;;;5011976;28;20076;-84
2021/05/25 10:00:39;;;;;;;0.60;0.40;;;17.30;58.00;;;;;;5011863;28;20029;-85
2021/05/25 10:03:21;;;;;;;2.30;0.70;;;17.20;57.30;;;;;;4999941;28;20078;-88
2021/05/25 10:05:48;;;;;;;;;;;17.10;56.90;;;;;;5036433;28;20053;-88
2021/05/25 10:08:15;;;;;;;0.85;0.50;;;17.00;58.80;;;;;;5018737;28;19982;-86
2021/05/25 10:10:41;;;;;;;7.65;0.90;;;16.80;58.00;;;;;;5026474;28;20402;-86
2021/05/25 10:13:08;;;;;;;0.93;0.40;;;16.70;60.80;;;;;;5014925;28;20042;-91
2021/05/25 10:15:34;;;;;;;2.83;1.30;;;16.60;59.70;;;;;;5021024;28;20295;-89
2021/05/25 10:20:27;;;;;;;1.25;0.80;;;16.70;58.50;;;;;;5014227;28;20037;-90
2021/05/25 10:22:53;;;;;;;0.50;0.28;;;16.80;59.00;;;;;;5014651;28;20045;-89
2021/05/25 10:25:21;;;;;;;0.75;0.40;;;16.70;64.50;;;;;;4998723;28;20468;-88
2021/05/25 10:27:48;;;;;;;2.97;0.30;;;16.50;67.30;;;;;;5002928;28;20081;-87
2021/05/25 10:30:25;;;;;;;1.15;0.40;;;16.40;66.90;;;;;;4997383;28;20046;-87
2021/05/25 10:33:06;;;;;;;0.50;0.30;;;16.50;70.80;;;;;;5005668;28;20042;-89
2021/05/25 10:36:08;;;;;;;1.38;0.38;;;16.70;65.90;;;;;;5006514;28;20046;-88
2021/05/25 10:38:43;;;;;;;1.02;0.47;;;16.80;64.00;;;;;;5019630;28;20037;-88
2021/05/25 10:41:26;;;;;;;2.85;0.40;;;16.80;66.10;;;;;;5024012;28;20042;-86
2021/05/25 10:43:52;;;;;;;1.00;0.35;;;16.80;63.80;;;;;;5024568;28;20113;-87
2021/05/25 10:46:22;;;;;;;0.52;0.28;;;16.80;62.40;;;;;;5013906;28;20368;-86
2021/05/25 10:51:46;;;;;;;0.30;0.30;;;17.10;62.20;;;;;;5007177;28;20422;-89
2021/05/25 10:54:30;;;;;;;0.68;0.30;;;17.50;60.80;;;;;;5010822;28;20041;-83
2021/05/25 10:56:57;;;;;;;0.20;0.20;;;17.70;57.70;;;;;;5013330;28;20317;-83
2021/05/25 10:59:22;;;;;;;1.23;0.30;;;17.70;57.70;;;;;;5015569;28;20164;-85
2021/05/25 11:01:56;;;;;;;1.65;0.40;;;17.60;60.20;;;;;;5013889;28;20121;-87
2021/05/25 11:04:23;;;;;;;0.35;0.20;;;17.70;60.00;;;;;;5012998;28;20444;-88
2021/05/25 11:06:49;;;;;;;0.77;0.73;;;17.90;59.30;;;;;;5006438;28;20281;-84
2021/05/25 11:09:29;;;;;;;0.32;0.30;;;18.00;58.80;;;;;;5006673;28;20121;-84
2021/05/25 11:12:17;;;;;;;0.88;0.30;;;18.10;57.90;;;;;;5014265;28;20037;-86
2021/05/25 11:15:14;;;;;;;0.20;0.20;;;18.10;57.90;;;;;;5005548;28;20034;-86
2021/05/25 11:17:39;;;;;;;0.45;0.30;;;17.90;58.10;;;;;;5019053;28;20038;-87
2021/05/25 11:20:27;;;;;;;0.88;0.30;;;17.90;59.60;;;;;;5031017;28;20034;-91
2021/05/25 11:22:52;;;;;;;0.95;0.50;;;17.90;59.80;;;;;;5012096;28;20042;-89
2021/05/25 11:25:40;;;;;;;4.43;0.40;;;17.90;58.60;;;;;;5018418;28;20042;-90
2021/05/25 11:28:06;;;;;;;1.00;0.30;;;17.80;57.60;;;;;;5018677;28;20030;-89
2021/05/25 11:30:33;;;;;;;0.17;0.17;;;17.70;58.30;;;;;;5015407;28;20038;-90
2021/05/25 11:33:02;;;;;;;0.85;0.20;;;17.60;59.50;;;;;;5011191;28;20047;-89
2021/05/25 11:35:29;;;;;;;0.77;0.40;;;17.40;62.20;;;;;;5025058;28;20097;-89
2021/05/25 11:37:59;;;;;;;1.02;0.20;;;17.20;63.60;;;;;;5012769;28;20042;-88
2021/05/25 11:40:27;;;;;;;0.40;0.30;;;17.10;66.10;;;;;;5015161;28;20077;-89
2021/05/25 11:42:54;;;;;;;0.35;0.22;;;17.00;62.60;;;;;;5022226;28;20030;-92
2021/05/25 11:45:24;;;;;;;3.53;0.30;;;16.80;63.60;;;;;;5021983;28;20096;-88
2021/05/25 11:47:56;;;;;;;0.77;0.30;;;16.70;62.70;;;;;;5017630;28;20056;-84
2021/05/25 11:50:22;;;;;;;0.20;0.20;;;16.70;62.00;;;;;;5018407;28;20050;-86
2021/05/25 11:52:52;;;;;;;0.50;0.25;;;16.80;60.20;;;;;;5021165;28;20038;-89
2021/05/25 11:55:20;;;;;;;0.22;0.22;;;17.00;62.60;;;;;;5016441;28;20042;-89
2021/05/25 11:57:48;;;;;;;0.82;0.43;;;17.40;61.10;;;;;;5023573;28;20066;-90
2021/05/25 12:00:15;;;;;;;0.25;0.20;;;17.60;60.20;;;;;;5020918;28;20417;-91
2021/05/25 12:02:49;;;;;;;0.20;0.20;;;17.70;61.10;;;;;;5007094;28;20037;-86
2021/05/25 12:05:20;;;;;;;0.98;0.38;;;17.60;58.10;;;;;;5009355;28;20413;-85
2021/05/25 12:07:48;;;;;;;0.45;0.30;;;17.60;59.80;;;;;;5014652;28;20034;-85
2021/05/25 12:10:16;;;;;;;0.22;0.20;;;17.50;58.30;;;;;;5008314;28;20196;-86
2021/05/25 12:12:44;;;;;;;0.90;0.35;;;17.30;60.80;;;;;;5024186;28;20049;-84
2021/05/25 12:15:17;;;;;;;3.00;0.30;;;17.10;63.60;;;;;;5010431;28;20064;-89
2021/05/25 12:17:45;;;;;;;0.88;0.40;;;16.90;71.40;;;;;;5019310;28;20505;-87
2021/05/25 12:20:17;;;;;;;4.32;0.40;;;17.00;65.70;;;;;;5017164;28;20057;-89
2021/05/25 12:22:43;;;;;;;1.00;0.70;;;17.20;64.30;;;;;;5006887;28;20038;-86
2021/05/25 12:25:27;;;;;;;1.88;0.55;;;17.60;63.60;;;;;;5019012;28;20033;-85
2021/05/25 12:28:11;;;;;;;1.33;0.20;;;17.90;65.20;;;;;;5006183;28;20259;-87
2021/05/25 12:30:44;;;;;;;1.50;0.40;;;18.30;63.70;;;;;;5032953;28;20034;-86
2021/05/25 12:33:24;;;;;;;0.20;0.20;;;18.50;62.10;;;;;;5031250;28;20041;-85
2021/05/25 12:35:50;;;;;;;0.80;0.30;;;18.50;62.50;;;;;;5022435;28;20038;-85
2021/05/25 12:38:22;;;;;;;4.57;0.30;;;18.30;60.80;;;;;;5016206;28;20038;-86
2021/05/25 12:40:59;;;;;;;2.70;0.57;;;17.70;62.80;;;;;;5009108;28;20042;-84
2021/05/25 12:43:30;;;;;;;0.98;0.40;;;16.90;67.00;;;;;;5011022;28;20483;-86
2021/05/25 12:46:07;;;;;;;0.20;0.20;;;16.30;74.20;;;;;;5006913;28;20049;-87
2021/05/25 12:48:34;;;;;;;0.20;0.20;;;15.50;77.20;;;;;;5009505;28;20401;-86
2021/05/25 12:51:00;;;;;;;0.60;0.38;;;14.80;79.00;;;;;;5017083;28;20046;-88
2021/05/25 12:53:26;;;;;;;4.45;0.32;;;14.40;82.20;;;;;;5022109;28;20058;-85
2021/05/25 12:55:51;;;;;;;0.73;0.50;;;14.10;81.20;;;;;;5018101;28;20042;-86
2021/05/25 12:58:36;;;;;;;0.30;0.30;;;14.00;84.40;;;;;;5018453;28;20076;-84
2021/05/25 13:01:28;;;;;;;0.30;0.30;;;14.20;86.70;;;;;;5011303;28;20045;-85
2021/05/25 13:04:13;;;;;;;0.90;0.68;;;14.60;79.10;;;;;;5023056;28;20038;-87
2021/05/25 13:07:02;;;;;;;0.30;0.30;;;15.10;84.20;;;;;;5009602;28;20042;-88
2021/05/25 13:09:38;;;;;;;0.30;0.20;;;15.60;81.90;;;;;;5013569;28;20077;-86
2021/05/25 13:12:09;;;;;;;0.47;0.28;;;16.10;78.60;;;;;;4999842;28;20046;-85
2021/05/25 13:14:36;;;;;;;0.35;0.30;;;16.50;78.30;;;;;;5007362;28;20034;-89